sensor_id;sensor_type;location;lat;lon;timestamp;pressure;altitude;pressure_sealevel;temperature;humidity
72118;BME280;59992;47.490;8.736;2023-08-01T00:01:11;95830.52;;;17.34;89.02
72118;BME280;59992;47.490;8.736;2023-08-01T00:04:02;95824.78;;;17.37;87.87
72118;BME280;59992;47.490;8.736;2023-08-01T00:06:53;95819.79;;;17.43;84.91
72118;BME280;59992;47.490;8.736;2023-08-01T00:09:44;95815.82;;;17.58;83.64
72118;BME280;59992;47.490;8.736;2023-08-01T00:12:34;95809.69;;;17.67;85.25
72118;BME280;59992;47.490;8.736;2023-08-01T00:15:24;95806.39;;;17.73;84.39
72118;BME280;59992;47.490;8.736;2023-08-01T00:18:14;95804.53;;;17.76;84.20
72118;BME280;59992;47.490;8.736;2023-08-01T00:21:05;95794.13;;;17.78;84.07
72118;BME280;59992;47.490;8.736;2023-08-01T00:23:59;95783.65;;;17.81;83.56
72118;BME280;59992;47.490;8.736;2023-08-01T00:26:49;95777.05;;;17.84;82.49
72118;BME280;59992;47.490;8.736;2023-08-01T00:29:39;95770.70;;;17.89;83.29
72118;BME280;59992;47.490;8.736;2023-08-01T00:32:30;95764.95;;;17.92;82.05
72118;BME280;59992;47.490;8.736;2023-08-01T00:35:21;95762.57;;;17.95;82.25
72118;BME280;59992;47.490;8.736;2023-08-01T00:38:12;95758.32;;;17.96;81.88
72118;BME280;59992;47.490;8.736;2023-08-01T00:41:02;95756.85;;;17.97;82.62
72118;BME280;59992;47.490;8.736;2023-08-01T00:43:52;95753.62;;;17.96;82.08
72118;BME280;59992;47.490;8.736;2023-08-01T00:46:43;95750.84;;;17.95;82.31
72118;BME280;59992;47.490;8.736;2023-08-01T00:49:33;95739.94;;;17.96;80.21
72118;BME280;59992;47.490;8.736;2023-08-01T00:52:23;95732.23;;;18.00;81.54
72118;BME280;59992;47.490;8.736;2023-08-01T00:55:14;95727.00;;;18.00;82.77
72118;BME280;59992;47.490;8.736;2023-08-01T00:58:04;95725.18;;;18.00;82.51
72118;BME280;59992;47.490;8.736;2023-08-01T01:00:54;95719.91;;;17.97;82.04
72118;BME280;59992;47.490;8.736;2023-08-01T01:03:46;95718.30;;;17.94;82.05
72118;BME280;59992;47.490;8.736;2023-08-01T01:06:45;95718.81;;;17.92;81.89
72118;BME280;59992;47.490;8.736;2023-08-01T01:09:36;95708.58;;;17.91;81.84
72118;BME280;59992;47.490;8.736;2023-08-01T01:12:26;95702.84;;;17.88;82.28
72118;BME280;59992;47.490;8.736;2023-08-01T01:15:16;95694.05;;;17.90;81.82
72118;BME280;59992;47.490;8.736;2023-08-01T01:18:06;95692.98;;;17.90;81.93
72118;BME280;59992;47.490;8.736;2023-08-01T01:20:56;95692.96;;;17.90;81.99
72118;BME280;59992;47.490;8.736;2023-08-01T01:23:47;95697.09;;;17.91;81.83
72118;BME280;59992;47.490;8.736;2023-08-01T01:26:38;95693.80;;;17.91;81.34
72118;BME280;59992;47.490;8.736;2023-08-01T01:29:31;95684.73;;;17.92;80.88
72118;BME280;59992;47.490;8.736;2023-08-01T01:32:23;95683.04;;;17.92;80.77
72118;BME280;59992;47.490;8.736;2023-08-01T01:35:13;95681.45;;;17.94;81.32
72118;BME280;59992;47.490;8.736;2023-08-01T01:38:03;95677.36;;;17.95;80.69
72118;BME280;59992;47.490;8.736;2023-08-01T01:40:53;95673.79;;;17.96;80.35
72118;BME280;59992;47.490;8.736;2023-08-01T01:43:43;95675.86;;;17.99;79.59
72118;BME280;59992;47.490;8.736;2023-08-01T01:46:34;95676.98;;;18.03;79.61
72118;BME280;59992;47.490;8.736;2023-08-01T01:49:24;95678.05;;;18.06;79.80
72118;BME280;59992;47.490;8.736;2023-08-01T01:52:14;95680.52;;;18.08;79.56
72118;BME280;59992;47.490;8.736;2023-08-01T01:55:05;95680.54;;;18.09;79.89
72118;BME280;59992;47.490;8.736;2023-08-01T01:57:56;95683.58;;;18.10;79.22
72118;BME280;59992;47.490;8.736;2023-08-01T02:00:46;95681.71;;;18.11;79.55
72118;BME280;59992;47.490;8.736;2023-08-01T02:03:36;95673.71;;;18.12;80.26
72118;BME280;59992;47.490;8.736;2023-08-01T02:06:26;95671.69;;;18.13;79.77
72118;BME280;59992;47.490;8.736;2023-08-01T02:09:17;95667.77;;;18.13;79.82
72118;BME280;59992;47.490;8.736;2023-08-01T02:12:08;95662.33;;;18.14;80.01
72118;BME280;59992;47.490;8.736;2023-08-01T02:15:03;95666.60;;;18.14;80.71
72118;BME280;59992;47.490;8.736;2023-08-01T02:17:53;95672.13;;;18.14;80.48
72118;BME280;59992;47.490;8.736;2023-08-01T02:20:43;95677.29;;;18.13;81.66
72118;BME280;59992;47.490;8.736;2023-08-01T02:23:33;95677.40;;;18.12;80.81
72118;BME280;59992;47.490;8.736;2023-08-01T02:26:26;95676.50;;;18.11;81.50
72118;BME280;59992;47.490;8.736;2023-08-01T02:29:18;95670.17;;;18.08;80.33
72118;BME280;59992;47.490;8.736;2023-08-01T02:32:08;95667.20;;;18.07;79.99
72118;BME280;59992;47.490;8.736;2023-08-01T02:34:58;95671.44;;;18.06;79.44
72118;BME280;59992;47.490;8.736;2023-08-01T02:37:49;95655.89;;;18.05;79.43
72118;BME280;59992;47.490;8.736;2023-08-01T02:40:39;95666.81;;;18.07;81.51
72118;BME280;59992;47.490;8.736;2023-08-01T02:43:29;95676.09;;;18.07;81.34
72118;BME280;59992;47.490;8.736;2023-08-01T02:46:19;95676.84;;;18.04;82.22
72118;BME280;59992;47.490;8.736;2023-08-01T02:49:09;95671.73;;;18.01;82.53
72118;BME280;59992;47.490;8.736;2023-08-01T02:51:59;95673.17;;;17.96;82.71
72118;BME280;59992;47.490;8.736;2023-08-01T02:54:50;95678.75;;;17.92;83.93
72118;BME280;59992;47.490;8.736;2023-08-01T02:57:40;95682.91;;;17.89;84.20
72118;BME280;59992;47.490;8.736;2023-08-01T03:00:30;95676.84;;;17.82;86.65
72118;BME280;59992;47.490;8.736;2023-08-01T03:03:21;95688.52;;;17.75;86.07
72118;BME280;59992;47.490;8.736;2023-08-01T03:06:11;95681.29;;;17.71;87.45
72118;BME280;59992;47.490;8.736;2023-08-01T03:09:02;95673.27;;;17.67;87.02
72118;BME280;59992;47.490;8.736;2023-08-01T03:11:52;95671.48;;;17.64;87.27
72118;BME280;59992;47.490;8.736;2023-08-01T03:14:42;95679.94;;;17.62;86.66
72118;BME280;59992;47.490;8.736;2023-08-01T03:17:33;95681.80;;;17.59;87.14
72118;BME280;59992;47.490;8.736;2023-08-01T03:20:23;95679.52;;;17.58;86.76
72118;BME280;59992;47.490;8.736;2023-08-01T03:23:14;95694.08;;;17.58;86.01
72118;BME280;59992;47.490;8.736;2023-08-01T03:26:04;95691.85;;;17.58;87.17
72118;BME280;59992;47.490;8.736;2023-08-01T03:28:55;95693.93;;;17.58;86.86
72118;BME280;59992;47.490;8.736;2023-08-01T03:31:45;95689.81;;;17.57;87.00
72118;BME280;59992;47.490;8.736;2023-08-01T03:34:35;95691.30;;;17.56;85.93
72118;BME280;59992;47.490;8.736;2023-08-01T03:37:25;95692.27;;;17.55;85.44
72118;BME280;59992;47.490;8.736;2023-08-01T03:40:15;95705.47;;;17.56;85.81
72118;BME280;59992;47.490;8.736;2023-08-01T03:43:05;95711.98;;;17.55;86.26
72118;BME280;59992;47.490;8.736;2023-08-01T03:45:55;95704.66;;;17.55;85.30
72118;BME280;59992;47.490;8.736;2023-08-01T03:48:46;95702.50;;;17.53;85.96
72118;BME280;59992;47.490;8.736;2023-08-01T03:51:36;95704.27;;;17.52;84.16
72118;BME280;59992;47.490;8.736;2023-08-01T03:54:26;95700.89;;;17.52;84.19
72118;BME280;59992;47.490;8.736;2023-08-01T03:57:16;95704.27;;;17.52;84.73
72118;BME280;59992;47.490;8.736;2023-08-01T04:00:08;95710.02;;;17.52;84.73
72118;BME280;59992;47.490;8.736;2023-08-01T04:03:02;95720.65;;;17.52;85.75
72118;BME280;59992;47.490;8.736;2023-08-01T04:05:52;95724.02;;;17.50;86.83
72118;BME280;59992;47.490;8.736;2023-08-01T04:08:43;95719.33;;;17.51;86.06
72118;BME280;59992;47.490;8.736;2023-08-01T04:11:33;95715.34;;;17.51;86.90
72118;BME280;59992;47.490;8.736;2023-08-01T04:14:23;95718.61;;;17.51;86.39
72118;BME280;59992;47.490;8.736;2023-08-01T04:17:13;95719.54;;;17.51;86.89
72118;BME280;59992;47.490;8.736;2023-08-01T04:20:04;95722.89;;;17.51;87.38
72118;BME280;59992;47.490;8.736;2023-08-01T04:22:55;95724.45;;;17.51;88.03
72118;BME280;59992;47.490;8.736;2023-08-01T04:25:45;95723.95;;;17.49;87.84
72118;BME280;59992;47.490;8.736;2023-08-01T04:28:35;95724.81;;;17.48;86.69
72118;BME280;59992;47.490;8.736;2023-08-01T04:31:25;95722.77;;;17.47;86.61
72118;BME280;59992;47.490;8.736;2023-08-01T04:34:15;95728.56;;;17.48;87.22
72118;BME280;59992;47.490;8.736;2023-08-01T04:37:06;95729.83;;;17.50;87.99
72118;BME280;59992;47.490;8.736;2023-08-01T04:39:57;95727.75;;;17.51;87.84
72118;BME280;59992;47.490;8.736;2023-08-01T04:42:47;95725.28;;;17.51;88.65
72118;BME280;59992;47.490;8.736;2023-08-01T04:45:37;95731.30;;;17.52;88.74
72118;BME280;59992;47.490;8.736;2023-08-01T04:48:27;95739.80;;;17.52;89.04
72118;BME280;59992;47.490;8.736;2023-08-01T04:51:17;95738.41;;;17.49;88.43
72118;BME280;59992;47.490;8.736;2023-08-01T04:54:08;95742.88;;;17.49;88.68
72118;BME280;59992;47.490;8.736;2023-08-01T04:56:58;95742.63;;;17.44;88.11
72118;BME280;59992;47.490;8.736;2023-08-01T04:59:48;95747.73;;;17.47;85.84
72118;BME280;59992;47.490;8.736;2023-08-01T05:02:38;95739.15;;;17.45;85.37
72118;BME280;59992;47.490;8.736;2023-08-01T05:05:28;95750.92;;;17.51;84.44
72118;BME280;59992;47.490;8.736;2023-08-01T05:08:18;95743.60;;;17.51;84.96
72118;BME280;59992;47.490;8.736;2023-08-01T05:11:08;95740.67;;;17.51;87.68
72118;BME280;59992;47.490;8.736;2023-08-01T05:13:58;95741.19;;;17.49;89.18
72118;BME280;59992;47.490;8.736;2023-08-01T05:16:48;95736.16;;;17.44;90.25
72118;BME280;59992;47.490;8.736;2023-08-01T05:19:39;95732.75;;;17.37;91.13
72118;BME280;59992;47.490;8.736;2023-08-01T05:22:30;95733.21;;;17.35;91.29
72118;BME280;59992;47.490;8.736;2023-08-01T05:25:20;95735.41;;;17.32;91.19
72118;BME280;59992;47.490;8.736;2023-08-01T05:28:10;95731.19;;;17.30;90.94
72118;BME280;59992;47.490;8.736;2023-08-01T05:31:01;95731.81;;;17.26;91.31
72118;BME280;59992;47.490;8.736;2023-08-01T05:33:51;95737.37;;;17.25;91.32
72118;BME280;59992;47.490;8.736;2023-08-01T05:36:41;95741.56;;;17.23;91.67
72118;BME280;59992;47.490;8.736;2023-08-01T05:39:31;95743.23;;;17.20;92.89
72118;BME280;59992;47.490;8.736;2023-08-01T05:42:21;95748.50;;;17.18;94.52
72118;BME280;59992;47.490;8.736;2023-08-01T05:45:12;95749.02;;;17.16;93.08
72118;BME280;59992;47.490;8.736;2023-08-01T05:48:03;95747.32;;;17.13;93.50
72118;BME280;59992;47.490;8.736;2023-08-01T05:50:53;95747.55;;;17.13;90.72
72118;BME280;59992;47.490;8.736;2023-08-01T05:53:44;95736.88;;;17.14;92.24
72118;BME280;59992;47.490;8.736;2023-08-01T05:56:34;95718.77;;;17.13;90.09
72118;BME280;59992;47.490;8.736;2023-08-01T05:59:24;95713.33;;;17.16;90.39
72118;BME280;59992;47.490;8.736;2023-08-01T06:02:14;95716.81;;;17.18;87.40
72118;BME280;59992;47.490;8.736;2023-08-01T06:05:05;95727.46;;;17.23;89.48
72118;BME280;59992;47.490;8.736;2023-08-01T06:07:55;95718.64;;;17.24;89.46
72118;BME280;59992;47.490;8.736;2023-08-01T06:10:45;95728.14;;;17.24;90.86
72118;BME280;59992;47.490;8.736;2023-08-01T06:13:35;95727.86;;;17.23;91.37
72118;BME280;59992;47.490;8.736;2023-08-01T06:16:25;95727.16;;;17.23;93.08
72118;BME280;59992;47.490;8.736;2023-08-01T06:19:16;95726.42;;;17.26;92.64
72118;BME280;59992;47.490;8.736;2023-08-01T06:22:06;95728.69;;;17.26;93.10
72118;BME280;59992;47.490;8.736;2023-08-01T06:24:56;95732.92;;;17.28;93.27
72118;BME280;59992;47.490;8.736;2023-08-01T06:27:46;95728.16;;;17.29;92.42
72118;BME280;59992;47.490;8.736;2023-08-01T06:30:37;95723.49;;;17.31;92.35
72118;BME280;59992;47.490;8.736;2023-08-01T06:33:27;95715.77;;;17.34;92.77
72118;BME280;59992;47.490;8.736;2023-08-01T06:36:17;95710.98;;;17.39;93.10
72118;BME280;59992;47.490;8.736;2023-08-01T06:39:08;95716.52;;;17.47;93.01
72118;BME280;59992;47.490;8.736;2023-08-01T06:41:58;95715.54;;;17.50;93.47
72118;BME280;59992;47.490;8.736;2023-08-01T06:44:48;95708.60;;;17.50;93.50
72118;BME280;59992;47.490;8.736;2023-08-01T06:47:38;95698.88;;;17.51;95.42
72118;BME280;59992;47.490;8.736;2023-08-01T06:50:29;95681.87;;;17.48;94.09
72118;BME280;59992;47.490;8.736;2023-08-01T06:53:20;95679.17;;;17.48;95.12
72118;BME280;59992;47.490;8.736;2023-08-01T06:56:10;95663.38;;;17.46;96.38
72118;BME280;59992;47.490;8.736;2023-08-01T06:59:00;95672.08;;;17.47;97.76
72118;BME280;59992;47.490;8.736;2023-08-01T07:01:51;95666.00;;;17.49;95.33
72118;BME280;59992;47.490;8.736;2023-08-01T07:04:41;95653.42;;;17.52;92.64
72118;BME280;59992;47.490;8.736;2023-08-01T07:07:32;95644.66;;;17.54;91.53
72118;BME280;59992;47.490;8.736;2023-08-01T07:10:22;95653.75;;;17.54;93.40
72118;BME280;59992;47.490;8.736;2023-08-01T07:13:12;95639.89;;;17.57;90.31
72118;BME280;59992;47.490;8.736;2023-08-01T07:16:04;95645.25;;;17.62;89.85
72118;BME280;59992;47.490;8.736;2023-08-01T07:18:54;95632.58;;;17.66;88.57
72118;BME280;59992;47.490;8.736;2023-08-01T07:21:45;95631.80;;;17.72;90.74
72118;BME280;59992;47.490;8.736;2023-08-01T07:24:36;95626.96;;;17.79;88.84
72118;BME280;59992;47.490;8.736;2023-08-01T07:27:26;95621.37;;;17.85;88.45
72118;BME280;59992;47.490;8.736;2023-08-01T07:30:17;95615.84;;;17.90;87.70
72118;BME280;59992;47.490;8.736;2023-08-01T07:33:07;95619.14;;;17.95;90.06
72118;BME280;59992;47.490;8.736;2023-08-01T07:35:57;95609.59;;;17.99;86.97
72118;BME280;59992;47.490;8.736;2023-08-01T07:38:47;95613.69;;;18.07;86.72
72118;BME280;59992;47.490;8.736;2023-08-01T07:41:38;95614.48;;;18.14;86.22
72118;BME280;59992;47.490;8.736;2023-08-01T07:44:28;95611.72;;;18.19;85.63
72118;BME280;59992;47.490;8.736;2023-08-01T07:47:18;95620.97;;;18.20;85.07
72118;BME280;59992;47.490;8.736;2023-08-01T07:50:09;95625.46;;;18.13;83.04
72118;BME280;59992;47.490;8.736;2023-08-01T07:53:01;95638.70;;;18.16;84.26
72118;BME280;59992;47.490;8.736;2023-08-01T07:55:52;95640.59;;;18.17;83.24
72118;BME280;59992;47.490;8.736;2023-08-01T07:58:43;95654.99;;;18.17;83.42
72118;BME280;59992;47.490;8.736;2023-08-01T08:01:33;95661.96;;;18.15;84.09
72118;BME280;59992;47.490;8.736;2023-08-01T08:04:23;95672.88;;;18.12;85.70
72118;BME280;59992;47.490;8.736;2023-08-01T08:07:13;95685.16;;;18.11;85.16
72118;BME280;59992;47.490;8.736;2023-08-01T08:10:04;95686.30;;;18.09;84.26
72118;BME280;59992;47.490;8.736;2023-08-01T08:12:54;95687.88;;;18.08;84.32
72118;BME280;59992;47.490;8.736;2023-08-01T08:15:45;95686.75;;;18.06;85.06
72118;BME280;59992;47.490;8.736;2023-08-01T08:18:35;95675.79;;;18.09;85.50
72118;BME280;59992;47.490;8.736;2023-08-01T08:21:25;95667.95;;;18.10;84.26
72118;BME280;59992;47.490;8.736;2023-08-01T08:24:15;95672.58;;;18.21;82.38
72118;BME280;59992;47.490;8.736;2023-08-01T08:27:06;95692.02;;;18.34;83.26
72118;BME280;59992;47.490;8.736;2023-08-01T08:29:57;95713.45;;;18.43;80.77
72118;BME280;59992;47.490;8.736;2023-08-01T08:32:47;95709.92;;;18.49;80.34
72118;BME280;59992;47.490;8.736;2023-08-01T08:35:37;95732.05;;;18.44;79.93
72118;BME280;59992;47.490;8.736;2023-08-01T08:38:28;95736.79;;;18.37;80.57
72118;BME280;59992;47.490;8.736;2023-08-01T08:41:21;95736.38;;;18.31;81.13
72118;BME280;59992;47.490;8.736;2023-08-01T08:44:16;95743.95;;;18.13;82.16
72118;BME280;59992;47.490;8.736;2023-08-01T08:47:07;95738.91;;;18.02;82.83
72118;BME280;59992;47.490;8.736;2023-08-01T08:50:00;95731.45;;;17.87;83.25
72118;BME280;59992;47.490;8.736;2023-08-01T08:52:50;95725.20;;;17.84;83.37
72118;BME280;59992;47.490;8.736;2023-08-01T08:55:40;95731.19;;;17.78;84.76
72118;BME280;59992;47.490;8.736;2023-08-01T08:58:31;95722.34;;;17.74;85.30
72118;BME280;59992;47.490;8.736;2023-08-01T09:01:22;95718.77;;;17.75;85.71
72118;BME280;59992;47.490;8.736;2023-08-01T09:04:12;95717.77;;;17.81;85.71
72118;BME280;59992;47.490;8.736;2023-08-01T09:07:07;95719.98;;;17.84;85.70
72118;BME280;59992;47.490;8.736;2023-08-01T09:09:57;95724.08;;;17.93;86.21
72118;BME280;59992;47.490;8.736;2023-08-01T09:12:47;95712.77;;;17.82;84.43
72118;BME280;59992;47.490;8.736;2023-08-01T09:15:38;95710.41;;;17.68;86.31
72118;BME280;59992;47.490;8.736;2023-08-01T09:18:29;95716.36;;;17.63;85.71
72118;BME280;59992;47.490;8.736;2023-08-01T09:21:23;95736.42;;;17.43;86.35
72118;BME280;59992;47.490;8.736;2023-08-01T09:24:14;95738.65;;;17.28;87.87
72118;BME280;59992;47.490;8.736;2023-08-01T09:27:06;95735.95;;;17.09;88.05
72118;BME280;59992;47.490;8.736;2023-08-01T09:30:06;95740.31;;;17.00;88.35
72118;BME280;59992;47.490;8.736;2023-08-01T09:32:57;95738.38;;;16.92;89.52
72118;BME280;59992;47.490;8.736;2023-08-01T09:35:48;95733.67;;;16.85;89.34
72118;BME280;59992;47.490;8.736;2023-08-01T09:38:39;95737.31;;;16.86;90.25
72118;BME280;59992;47.490;8.736;2023-08-01T09:41:29;95739.74;;;16.89;90.41
72118;BME280;59992;47.490;8.736;2023-08-01T09:44:20;95731.30;;;16.99;92.20
72118;BME280;59992;47.490;8.736;2023-08-01T09:47:10;95731.33;;;17.16;91.97
72118;BME280;59992;47.490;8.736;2023-08-01T09:50:00;95718.84;;;17.31;89.80
72118;BME280;59992;47.490;8.736;2023-08-01T09:52:50;95709.52;;;17.47;90.55
72118;BME280;59992;47.490;8.736;2023-08-01T09:55:45;95712.10;;;17.79;91.13
72118;BME280;59992;47.490;8.736;2023-08-01T09:58:36;95715.23;;;18.05;88.37
72118;BME280;59992;47.490;8.736;2023-08-01T10:01:26;95712.29;;;18.16;86.72
72118;BME280;59992;47.490;8.736;2023-08-01T10:04:18;95708.10;;;18.30;88.88
72118;BME280;59992;47.490;8.736;2023-08-01T10:07:12;95703.94;;;18.56;86.65
72118;BME280;59992;47.490;8.736;2023-08-01T10:10:03;95700.89;;;18.87;84.55
72118;BME280;59992;47.490;8.736;2023-08-01T10:12:55;95700.97;;;19.10;85.06
72118;BME280;59992;47.490;8.736;2023-08-01T10:15:46;95696.56;;;19.36;83.56
72118;BME280;59992;47.490;8.736;2023-08-01T10:18:37;95697.64;;;19.66;80.98
72118;BME280;59992;47.490;8.736;2023-08-01T10:21:29;95701.19;;;19.89;81.63
72118;BME280;59992;47.490;8.736;2023-08-01T10:24:21;95694.82;;;19.96;78.43
72118;BME280;59992;47.490;8.736;2023-08-01T10:27:20;95700.87;;;20.11;79.11
72118;BME280;59992;47.490;8.736;2023-08-01T10:30:11;95704.56;;;20.13;78.16
72118;BME280;59992;47.490;8.736;2023-08-01T10:33:01;95712.14;;;20.10;77.08
72118;BME280;59992;47.490;8.736;2023-08-01T10:35:52;95710.66;;;20.09;77.64
72118;BME280;59992;47.490;8.736;2023-08-01T10:38:51;95700.14;;;20.08;78.12
72118;BME280;59992;47.490;8.736;2023-08-01T10:41:42;95702.27;;;20.05;78.06
72118;BME280;59992;47.490;8.736;2023-08-01T10:44:44;95703.41;;;19.91;78.63
72118;BME280;59992;47.490;8.736;2023-08-01T10:47:35;95693.75;;;19.57;79.91
72118;BME280;59992;47.490;8.736;2023-08-01T10:50:25;95706.54;;;19.49;80.78
72118;BME280;59992;47.490;8.736;2023-08-01T10:53:15;95705.31;;;19.27;80.63
72118;BME280;59992;47.490;8.736;2023-08-01T10:56:06;95703.65;;;19.13;81.27
72118;BME280;59992;47.490;8.736;2023-08-01T10:58:58;95708.33;;;18.92;83.34
72118;BME280;59992;47.490;8.736;2023-08-01T11:01:49;95708.33;;;18.72;83.51
72118;BME280;59992;47.490;8.736;2023-08-01T11:04:39;95706.08;;;18.52;84.50
72118;BME280;59992;47.490;8.736;2023-08-01T11:07:30;95716.95;;;18.34;84.30
72118;BME280;59992;47.490;8.736;2023-08-01T11:10:20;95728.42;;;18.30;85.18
72118;BME280;59992;47.490;8.736;2023-08-01T11:13:12;95714.88;;;18.14;84.24
72118;BME280;59992;47.490;8.736;2023-08-01T11:16:04;95714.45;;;18.03;85.18
72118;BME280;59992;47.490;8.736;2023-08-01T11:18:54;95722.42;;;17.89;84.77
72118;BME280;59992;47.490;8.736;2023-08-01T11:21:45;95730.62;;;17.87;84.33
72118;BME280;59992;47.490;8.736;2023-08-01T11:24:35;95736.84;;;17.78;86.27
72118;BME280;59992;47.490;8.736;2023-08-01T11:27:26;95728.52;;;17.72;85.97
72118;BME280;59992;47.490;8.736;2023-08-01T11:30:17;95736.58;;;17.77;86.00
72118;BME280;59992;47.490;8.736;2023-08-01T11:33:15;95736.89;;;17.74;87.53
72118;BME280;59992;47.490;8.736;2023-08-01T11:36:07;95748.73;;;17.72;87.97
72118;BME280;59992;47.490;8.736;2023-08-01T11:38:59;95738.77;;;17.69;87.45
72118;BME280;59992;47.490;8.736;2023-08-01T11:41:49;95742.23;;;17.66;88.22
72118;BME280;59992;47.490;8.736;2023-08-01T11:44:39;95743.85;;;17.77;88.97
72118;BME280;59992;47.490;8.736;2023-08-01T11:47:29;95744.17;;;17.87;89.90
72118;BME280;59992;47.490;8.736;2023-08-01T11:50:23;95744.28;;;17.99;87.74
72118;BME280;59992;47.490;8.736;2023-08-01T11:53:20;95733.36;;;18.08;88.01
72118;BME280;59992;47.490;8.736;2023-08-01T11:56:21;95748.98;;;18.06;87.82
72118;BME280;59992;47.490;8.736;2023-08-01T11:59:12;95745.00;;;18.12;88.68
72118;BME280;59992;47.490;8.736;2023-08-01T12:02:03;95736.29;;;18.26;87.74
72118;BME280;59992;47.490;8.736;2023-08-01T12:04:53;95741.23;;;18.45;89.79
72118;BME280;59992;47.490;8.736;2023-08-01T12:07:43;95742.98;;;18.62;89.75
72118;BME280;59992;47.490;8.736;2023-08-01T12:10:39;95740.08;;;18.74;88.04
72118;BME280;59992;47.490;8.736;2023-08-01T12:13:29;95730.20;;;18.85;87.87
72118;BME280;59992;47.490;8.736;2023-08-01T12:16:19;95725.63;;;18.96;86.88
72118;BME280;59992;47.490;8.736;2023-08-01T12:19:09;95724.35;;;19.21;87.29
72118;BME280;59992;47.490;8.736;2023-08-01T12:22:00;95724.79;;;19.33;84.72
72118;BME280;59992;47.490;8.736;2023-08-01T12:24:51;95728.77;;;19.53;85.56
72118;BME280;59992;47.490;8.736;2023-08-01T12:27:41;95729.06;;;19.77;84.76
72118;BME280;59992;47.490;8.736;2023-08-01T12:30:31;95727.85;;;20.01;83.86
72118;BME280;59992;47.490;8.736;2023-08-01T12:33:21;95732.85;;;20.20;83.76
72118;BME280;59992;47.490;8.736;2023-08-01T12:36:11;95737.50;;;20.41;84.35
72118;BME280;59992;47.490;8.736;2023-08-01T12:39:01;95727.06;;;20.62;82.88
72118;BME280;59992;47.490;8.736;2023-08-01T12:41:51;95725.96;;;20.82;82.69
72118;BME280;59992;47.490;8.736;2023-08-01T12:44:42;95730.58;;;21.01;80.93
72118;BME280;59992;47.490;8.736;2023-08-01T12:47:32;95727.75;;;21.02;78.08
72118;BME280;59992;47.490;8.736;2023-08-01T12:50:22;95723.33;;;20.99;77.01
72118;BME280;59992;47.490;8.736;2023-08-01T12:53:12;95708.13;;;21.17;78.21
72118;BME280;59992;47.490;8.736;2023-08-01T12:56:02;95705.13;;;21.22;77.20
72118;BME280;59992;47.490;8.736;2023-08-01T12:58:52;95709.02;;;21.19;76.66
72118;BME280;59992;47.490;8.736;2023-08-01T13:01:42;95718.98;;;21.38;77.17
72118;BME280;59992;47.490;8.736;2023-08-01T13:04:33;95723.29;;;21.53;76.36
72118;BME280;59992;47.490;8.736;2023-08-01T13:07:23;95722.55;;;21.61;75.03
72118;BME280;59992;47.490;8.736;2023-08-01T13:10:14;95723.41;;;21.48;74.35
72118;BME280;59992;47.490;8.736;2023-08-01T13:13:04;95719.05;;;21.60;74.08
72118;BME280;59992;47.490;8.736;2023-08-01T13:15:57;95722.96;;;21.57;73.81
72118;BME280;59992;47.490;8.736;2023-08-01T13:18:47;95714.16;;;21.66;73.71
72118;BME280;59992;47.490;8.736;2023-08-01T13:21:37;95712.83;;;21.79;73.34
72118;BME280;59992;47.490;8.736;2023-08-01T13:24:41;95716.48;;;21.76;72.40
72118;BME280;59992;47.490;8.736;2023-08-01T13:27:48;95722.00;;;21.62;71.79
72118;BME280;59992;47.490;8.736;2023-08-01T13:30:38;95730.98;;;21.58;72.14
72118;BME280;59992;47.490;8.736;2023-08-01T13:33:28;95738.73;;;21.52;72.41
72118;BME280;59992;47.490;8.736;2023-08-01T13:36:18;95739.49;;;21.41;72.07
72118;BME280;59992;47.490;8.736;2023-08-01T13:39:09;95739.21;;;21.35;72.27
72118;BME280;59992;47.490;8.736;2023-08-01T13:41:59;95737.30;;;21.32;71.62
72118;BME280;59992;47.490;8.736;2023-08-01T13:44:49;95744.42;;;21.38;71.93
72118;BME280;59992;47.490;8.736;2023-08-01T13:47:39;95753.50;;;21.47;71.54
72118;BME280;59992;47.490;8.736;2023-08-01T13:50:30;95757.91;;;21.52;70.74
72118;BME280;59992;47.490;8.736;2023-08-01T13:53:21;95753.56;;;21.44;69.92
72118;BME280;59992;47.490;8.736;2023-08-01T13:56:11;95763.30;;;21.38;70.62
72118;BME280;59992;47.490;8.736;2023-08-01T13:59:01;95755.92;;;21.19;70.85
72118;BME280;59992;47.490;8.736;2023-08-01T14:01:52;95755.70;;;21.13;71.60
72118;BME280;59992;47.490;8.736;2023-08-01T14:04:42;95760.06;;;21.03;72.92
72118;BME280;59992;47.490;8.736;2023-08-01T14:07:34;95757.59;;;20.86;73.06
72118;BME280;59992;47.490;8.736;2023-08-01T14:10:24;95774.93;;;20.61;73.88
72118;BME280;59992;47.490;8.736;2023-08-01T14:13:15;95784.93;;;20.38;74.56
72118;BME280;59992;47.490;8.736;2023-08-01T14:16:05;95786.45;;;19.86;75.87
72118;BME280;59992;47.490;8.736;2023-08-01T14:18:55;95791.34;;;19.56;77.64
72118;BME280;59992;47.490;8.736;2023-08-01T14:21:45;95795.73;;;19.51;77.56
72118;BME280;59992;47.490;8.736;2023-08-01T14:24:35;95794.15;;;19.29;78.75
72118;BME280;59992;47.490;8.736;2023-08-01T14:27:25;95794.30;;;19.14;80.43
72118;BME280;59992;47.490;8.736;2023-08-01T14:30:16;95792.55;;;19.13;82.22
72118;BME280;59992;47.490;8.736;2023-08-01T14:33:08;95791.92;;;19.11;81.43
72118;BME280;59992;47.490;8.736;2023-08-01T14:35:58;95791.89;;;19.03;81.84
72118;BME280;59992;47.490;8.736;2023-08-01T14:38:49;95798.98;;;19.07;81.70
72118;BME280;59992;47.490;8.736;2023-08-01T14:41:43;95796.95;;;19.07;82.00
72118;BME280;59992;47.490;8.736;2023-08-01T14:44:35;95800.62;;;19.10;81.86
72118;BME280;59992;47.490;8.736;2023-08-01T14:47:25;95807.27;;;19.09;82.04
72118;BME280;59992;47.490;8.736;2023-08-01T14:50:17;95812.97;;;19.08;83.04
72118;BME280;59992;47.490;8.736;2023-08-01T14:53:07;95797.98;;;18.99;84.49
72118;BME280;59992;47.490;8.736;2023-08-01T14:56:00;95805.94;;;18.93;83.64
72118;BME280;59992;47.490;8.736;2023-08-01T14:58:52;95807.11;;;18.94;85.23
72118;BME280;59992;47.490;8.736;2023-08-01T15:01:42;95801.80;;;18.92;86.03
72118;BME280;59992;47.490;8.736;2023-08-01T15:04:32;95796.35;;;18.86;87.06